sensor_id;sensor_type;location;lat;lon;timestamp;pressure;altitude;pressure_sealevel;temperature;humidity
45071;BME280;30836;48.906;9.140;2022-09-23T00:00:34;988.74;;;17.94;40.86
45071;BME280;30836;48.906;9.140;2022-09-23T00:01:35;988.74;;;18.03;40.73
45071;BME280;30836;48.906;9.140;2022-09-23T00:02:36;988.72;;;18.10;40.48
45071;BME280;30836;48.906;9.140;2022-09-23T00:03:37;988.74;;;18.15;40.32
45071;BME280;30836;48.906;9.140;2022-09-23T00:04:39;988.72;;;18.19;40.23
45071;BME280;30836;48.906;9.140;2022-09-23T00:05:39;988.72;;;18.23;40.01
45071;BME280;30836;48.906;9.140;2022-09-23T00:06:40;988.72;;;18.26;39.93
45071;BME280;30836;48.906;9.140;2022-09-23T00:07:40;988.72;;;18.29;39.74
45071;BME280;30836;48.906;9.140;2022-09-23T00:08:40;988.72;;;18.31;39.62
45071;BME280;30836;48.906;9.140;2022-09-23T00:09:41;988.72;;;18.33;39.60
45071;BME280;30836;48.906;9.140;2022-09-23T00:10:41;988.72;;;18.35;39.58
45071;BME280;30836;48.906;9.140;2022-09-23T00:11:42;988.74;;;18.36;39.44
45071;BME280;30836;48.906;9.140;2022-09-23T00:12:42;988.72;;;18.37;39.39
45071;BME280;30836;48.906;9.140;2022-09-23T00:13:43;988.72;;;18.38;39.33
45071;BME280;30836;48.906;9.140;2022-09-23T00:14:45;988.72;;;18.39;39.33
45071;BME280;30836;48.906;9.140;2022-09-23T00:15:45;988.74;;;18.38;39.40
45071;BME280;30836;48.906;9.140;2022-09-23T00:16:46;988.74;;;18.38;39.47
45071;BME280;30836;48.906;9.140;2022-09-23T00:17:46;988.74;;;18.39;39.52
45071;BME280;30836;48.906;9.140;2022-09-23T00:18:47;988.74;;;18.39;39.68
45071;BME280;30836;48.906;9.140;2022-09-23T00:19:48;988.74;;;18.39;39.76
45071;BME280;30836;48.906;9.140;2022-09-23T00:20:48;988.76;;;18.38;39.95
45071;BME280;30836;48.906;9.140;2022-09-23T00:21:49;988.74;;;18.37;40.07
45071;BME280;30836;48.906;9.140;2022-09-23T00:22:49;988.76;;;18.36;40.07
45071;BME280;30836;48.906;9.140;2022-09-23T00:23:49;988.76;;;18.34;40.07
45071;BME280;30836;48.906;9.140;2022-09-23T00:24:50;988.80;;;18.32;40.18
45071;BME280;30836;48.906;9.140;2022-09-23T00:25:57;988.80;;;18.29;40.30
45071;BME280;30836;48.906;9.140;2022-09-23T00:26:58;988.80;;;18.26;40.21
45071;BME280;30836;48.906;9.140;2022-09-23T00:27:59;988.78;;;18.24;40.18
45071;BME280;30836;48.906;9.140;2022-09-23T00:28:59;988.76;;;18.21;40.23
45071;BME280;30836;48.906;9.140;2022-09-23T00:30:00;988.78;;;18.16;40.39
45071;BME280;30836;48.906;9.140;2022-09-23T00:31:06;988.76;;;18.13;40.39
45071;BME280;30836;48.906;9.140;2022-09-23T00:32:09;988.74;;;18.11;40.43
45071;BME280;30836;48.906;9.140;2022-09-23T00:33:09;988.74;;;18.10;40.45
45071;BME280;30836;48.906;9.140;2022-09-23T00:34:10;988.76;;;18.11;40.42
45071;BME280;30836;48.906;9.140;2022-09-23T00:35:10;988.74;;;18.12;40.41
45071;BME280;30836;48.906;9.140;2022-09-23T00:36:11;988.76;;;18.13;40.39
45071;BME280;30836;48.906;9.140;2022-09-23T00:36:25;988.74;;;18.13;40.40
45071;BME280;30836;48.906;9.140;2022-09-23T00:37:27;988.70;;;18.12;40.47
45071;BME280;30836;48.906;9.140;2022-09-23T00:38:28;988.68;;;18.06;40.76
45071;BME280;30836;48.906;9.140;2022-09-23T00:39:28;988.72;;;17.94;41.09
45071;BME280;30836;48.906;9.140;2022-09-23T00:40:29;988.70;;;17.81;41.38
45071;BME280;30836;48.906;9.140;2022-09-23T00:41:29;988.72;;;17.70;41.57
45071;BME280;30836;48.906;9.140;2022-09-23T00:42:30;988.68;;;17.59;41.74
45071;BME280;30836;48.906;9.140;2022-09-23T00:45:43;988.64;;;17.33;42.30
45071;BME280;30836;48.906;9.140;2022-09-23T00:46:47;988.66;;;17.25;42.44
45071;BME280;30836;48.906;9.140;2022-09-23T00:51:07;988.70;;;17.06;42.93
45071;BME280;30836;48.906;9.140;2022-09-23T00:52:12;988.68;;;17.04;42.96
45071;BME280;30836;48.906;9.140;2022-09-23T00:53:18;988.66;;;17.02;42.94
45071;BME280;30836;48.906;9.140;2022-09-23T00:54:21;988.64;;;17.02;42.84
45071;BME280;30836;48.906;9.140;2022-09-23T00:55:29;988.64;;;17.07;42.67
45071;BME280;30836;48.906;9.140;2022-09-23T00:56:33;988.66;;;17.16;42.41
45071;BME280;30836;48.906;9.140;2022-09-23T00:57:35;988.63;;;17.26;42.26
45071;BME280;30836;48.906;9.140;2022-09-23T00:58:38;988.63;;;17.32;42.19
45071;BME280;30836;48.906;9.140;2022-09-23T00:59:42;988.61;;;17.32;42.35
45071;BME280;30836;48.906;9.140;2022-09-23T01:00:43;988.63;;;17.24;42.63
45071;BME280;30836;48.906;9.140;2022-09-23T01:01:43;988.61;;;17.14;42.89
45071;BME280;30836;48.906;9.140;2022-09-23T01:02:45;988.61;;;17.04;43.00
45071;BME280;30836;48.906;9.140;2022-09-23T01:03:46;988.63;;;16.95;43.01
45071;BME280;30836;48.906;9.140;2022-09-23T01:04:49;988.61;;;16.87;43.18
45071;BME280;30836;48.906;9.140;2022-09-23T01:05:50;988.59;;;16.80;43.37
45071;BME280;30836;48.906;9.140;2022-09-23T01:06:51;988.59;;;16.75;43.47
45071;BME280;30836;48.906;9.140;2022-09-23T01:07:52;988.57;;;16.71;43.47
45071;BME280;30836;48.906;9.140;2022-09-23T01:08:56;988.59;;;16.68;43.50
45071;BME280;30836;48.906;9.140;2022-09-23T01:09:57;988.63;;;16.66;43.62
45071;BME280;30836;48.906;9.140;2022-09-23T01:14:40;988.57;;;16.54;43.95
45071;BME280;30836;48.906;9.140;2022-09-23T01:16:28;988.57;;;16.51;44.03
45071;BME280;30836;48.906;9.140;2022-09-23T01:20:29;988.55;;;16.43;44.22
45071;BME280;30836;48.906;9.140;2022-09-23T01:24:02;988.51;;;16.42;44.41
45071;BME280;30836;48.906;9.140;2022-09-23T01:27:27;988.51;;;16.46;44.22
45071;BME280;30836;48.906;9.140;2022-09-23T01:30:56;988.47;;;16.48;44.36
45071;BME280;30836;48.906;9.140;2022-09-23T01:33:19;988.47;;;16.48;44.37
45071;BME280;30836;48.906;9.140;2022-09-23T01:35:42;988.43;;;16.49;44.30
45071;BME280;30836;48.906;9.140;2022-09-23T01:36:52;988.47;;;16.50;44.21
45071;BME280;30836;48.906;9.140;2022-09-23T01:46:06;988.47;;;17.31;42.51
45071;BME280;30836;48.906;9.140;2022-09-23T01:48:21;988.45;;;17.43;42.33
45071;BME280;30836;48.906;9.140;2022-09-23T01:49:27;988.41;;;17.48;42.31
45071;BME280;30836;48.906;9.140;2022-09-23T01:50:33;988.39;;;17.51;42.30
45071;BME280;30836;48.906;9.140;2022-09-23T01:51:38;988.35;;;17.55;42.24
45071;BME280;30836;48.906;9.140;2022-09-23T01:52:43;988.39;;;17.58;42.04
45071;BME280;30836;48.906;9.140;2022-09-23T01:58:27;988.39;;;17.36;41.74
45071;BME280;30836;48.906;9.140;2022-09-23T01:59:33;988.35;;;17.28;41.78
45071;BME280;30836;48.906;9.140;2022-09-23T02:00:39;988.33;;;17.15;41.80
45071;BME280;30836;48.906;9.140;2022-09-23T02:01:50;988.35;;;17.02;41.86
45071;BME280;30836;48.906;9.140;2022-09-23T02:02:56;988.33;;;16.90;42.01
45071;BME280;30836;48.906;9.140;2022-09-23T02:04:08;988.29;;;16.80;42.19
45071;BME280;30836;48.906;9.140;2022-09-23T02:05:16;988.31;;;16.71;42.21
45071;BME280;30836;48.906;9.140;2022-09-23T02:06:27;988.29;;;16.63;42.35
45071;BME280;30836;48.906;9.140;2022-09-23T02:08:45;988.31;;;16.57;42.23
45071;BME280;30836;48.906;9.140;2022-09-23T02:10:01;988.27;;;16.52;42.33
45071;BME280;30836;48.906;9.140;2022-09-23T02:12:10;988.27;;;16.40;42.62
45071;BME280;30836;48.906;9.140;2022-09-23T02:13:19;988.25;;;16.34;42.71
45071;BME280;30836;48.906;9.140;2022-09-23T02:14:24;988.29;;;16.30;42.71
45071;BME280;30836;48.906;9.140;2022-09-23T02:15:30;988.25;;;16.25;42.83
45071;BME280;30836;48.906;9.140;2022-09-23T02:16:38;988.25;;;16.23;42.90
45071;BME280;30836;48.906;9.140;2022-09-23T02:18:50;988.23;;;16.32;42.77
45071;BME280;30836;48.906;9.140;2022-09-23T02:19:58;988.21;;;16.33;42.90
45071;BME280;30836;48.906;9.140;2022-09-23T02:21:03;988.23;;;16.31;43.06
45071;BME280;30836;48.906;9.140;2022-09-23T02:22:07;988.23;;;16.30;43.11
45071;BME280;30836;48.906;9.140;2022-09-23T02:23:12;988.27;;;16.29;43.14
45071;BME280;30836;48.906;9.140;2022-09-23T02:24:21;988.25;;;16.26;43.15
45071;BME280;30836;48.906;9.140;2022-09-23T02:25:28;988.23;;;16.23;43.15
45071;BME280;30836;48.906;9.140;2022-09-23T02:27:52;988.23;;;16.13;43.23
45071;BME280;30836;48.906;9.140;2022-09-23T02:30:13;988.21;;;16.05;43.31
45071;BME280;30836;48.906;9.140;2022-09-23T02:31:24;988.21;;;16.01;43.39
45071;BME280;30836;48.906;9.140;2022-09-23T02:32:32;988.19;;;15.97;43.50
45071;BME280;30836;48.906;9.140;2022-09-23T02:33:40;988.21;;;15.96;43.49
45071;BME280;30836;48.906;9.140;2022-09-23T02:35:59;988.19;;;15.99;43.30
45071;BME280;30836;48.906;9.140;2022-09-23T02:37:14;988.15;;;15.96;43.43
45071;BME280;30836;48.906;9.140;2022-09-23T02:39:28;988.17;;;15.95;43.57
45071;BME280;30836;48.906;9.140;2022-09-23T02:40:58;988.19;;;16.02;43.32
45071;BME280;30836;48.906;9.140;2022-09-23T02:43:00;988.21;;;16.24;42.74
45071;BME280;30836;48.906;9.140;2022-09-23T02:44:06;988.23;;;16.34;42.55
45071;BME280;30836;48.906;9.140;2022-09-23T02:45:10;988.23;;;16.41;42.45
45071;BME280;30836;48.906;9.140;2022-09-23T02:46:10;988.23;;;16.47;42.32
45071;BME280;30836;48.906;9.140;2022-09-23T02:47:11;988.25;;;16.51;42.15
45071;BME280;30836;48.906;9.140;2022-09-23T02:49:23;988.23;;;16.60;42.13
45071;BME280;30836;48.906;9.140;2022-09-23T02:50:27;988.25;;;16.65;42.10
45071;BME280;30836;48.906;9.140;2022-09-23T02:51:27;988.21;;;16.69;42.16
45071;BME280;30836;48.906;9.140;2022-09-23T02:52:28;988.19;;;16.72;42.17
45071;BME280;30836;48.906;9.140;2022-09-23T02:53:29;988.19;;;16.76;42.11
45071;BME280;30836;48.906;9.140;2022-09-23T02:54:31;988.19;;;16.79;42.09
45071;BME280;30836;48.906;9.140;2022-09-23T02:54:41;988.17;;;16.83;42.07
45071;BME280;30836;48.906;9.140;2022-09-23T02:55:42;988.13;;;16.81;42.17
45071;BME280;30836;48.906;9.140;2022-09-23T02:56:43;988.13;;;16.74;42.42
45071;BME280;30836;48.906;9.140;2022-09-23T02:57:44;988.12;;;16.61;42.71
45071;BME280;30836;48.906;9.140;2022-09-23T02:58:48;988.13;;;16.48;43.00
45071;BME280;30836;48.906;9.140;2022-09-23T02:59:51;988.10;;;16.36;43.10
45071;BME280;30836;48.906;9.140;2022-09-23T03:02:07;988.06;;;16.15;43.23
45071;BME280;30836;48.906;9.140;2022-09-23T03:05:33;988.04;;;15.90;43.40
45071;BME280;30836;48.906;9.140;2022-09-23T03:09:03;987.98;;;15.72;43.74
45071;BME280;30836;48.906;9.140;2022-09-23T03:11:21;988.02;;;15.62;43.84
45071;BME280;30836;48.906;9.140;2022-09-23T03:12:26;987.98;;;15.58;44.00
45071;BME280;30836;48.906;9.140;2022-09-23T03:17:01;988.04;;;15.44;44.57
45071;BME280;30836;48.906;9.140;2022-09-23T03:18:12;988.02;;;15.41;44.69
45071;BME280;30836;48.906;9.140;2022-09-23T03:21:35;988.02;;;15.35;44.80
45071;BME280;30836;48.906;9.140;2022-09-23T03:22:44;988.02;;;15.35;44.71
45071;BME280;30836;48.906;9.140;2022-09-23T03:23:51;988.02;;;15.36;44.59
45071;BME280;30836;48.906;9.140;2022-09-23T03:24:53;988.02;;;15.37;44.63
45071;BME280;30836;48.906;9.140;2022-09-23T03:25:59;988.00;;;15.37;44.76
45071;BME280;30836;48.906;9.140;2022-09-23T03:27:07;988.00;;;15.38;44.79
45071;BME280;30836;48.906;9.140;2022-09-23T03:28:12;987.98;;;15.38;44.87
45071;BME280;30836;48.906;9.140;2022-09-23T03:29:16;987.96;;;15.39;44.88
45071;BME280;30836;48.906;9.140;2022-09-23T03:30:18;987.98;;;15.40;44.89
45071;BME280;30836;48.906;9.140;2022-09-23T03:31:19;987.98;;;15.41;44.92
45071;BME280;30836;48.906;9.140;2022-09-23T03:32:20;987.98;;;15.41;44.91
45071;BME280;30836;48.906;9.140;2022-09-23T03:33:24;987.98;;;15.41;44.91
45071;BME280;30836;48.906;9.140;2022-09-23T03:34:27;987.96;;;15.41;45.10
45071;BME280;30836;48.906;9.140;2022-09-23T03:35:31;988.00;;;15.42;45.09
45071;BME280;30836;48.906;9.140;2022-09-23T03:39:05;987.98;;;15.59;44.93
45071;BME280;30836;48.906;9.140;2022-09-23T03:40:12;987.96;;;15.59;44.93
45071;BME280;30836;48.906;9.140;2022-09-23T03:41:17;987.96;;;15.66;44.58
45071;BME280;30836;48.906;9.140;2022-09-23T03:42:27;987.96;;;15.75;44.41
45071;BME280;30836;48.906;9.140;2022-09-23T03:43:30;987.96;;;15.82;44.36
45071;BME280;30836;48.906;9.140;2022-09-23T03:44:33;987.94;;;15.90;44.08
45071;BME280;30836;48.906;9.140;2022-09-23T03:45:35;987.98;;;16.00;43.83
45071;BME280;30836;48.906;9.140;2022-09-23T03:46:35;987.98;;;16.09;43.59
45071;BME280;30836;48.906;9.140;2022-09-23T03:47:36;987.96;;;16.17;43.42
45071;BME280;30836;48.906;9.140;2022-09-23T03:48:37;987.98;;;16.23;43.42
45071;BME280;30836;48.906;9.140;2022-09-23T03:49:37;987.98;;;16.28;43.38
45071;BME280;30836;48.906;9.140;2022-09-23T03:50:39;987.96;;;16.33;43.25
45071;BME280;30836;48.906;9.140;2022-09-23T03:51:39;987.98;;;16.38;43.19
45071;BME280;30836;48.906;9.140;2022-09-23T03:52:40;987.94;;;16.40;43.27
45071;BME280;30836;48.906;9.140;2022-09-23T03:53:40;987.94;;;16.41;43.23
45071;BME280;30836;48.906;9.140;2022-09-23T03:54:41;987.90;;;16.44;43.18
45071;BME280;30836;48.906;9.140;2022-09-23T03:55:41;987.86;;;16.46;43.17
45071;BME280;30836;48.906;9.140;2022-09-23T03:56:42;987.88;;;16.49;43.13
45071;BME280;30836;48.906;9.140;2022-09-23T03:57:42;987.84;;;16.52;42.98
45071;BME280;30836;48.906;9.140;2022-09-23T03:58:43;987.84;;;16.54;42.82
45071;BME280;30836;48.906;9.140;2022-09-23T03:59:43;987.84;;;16.56;42.93
45071;BME280;30836;48.906;9.140;2022-09-23T04:00:43;987.84;;;16.57;42.85
45071;BME280;30836;48.906;9.140;2022-09-23T04:01:44;987.84;;;16.59;42.80
45071;BME280;30836;48.906;9.140;2022-09-23T04:02:44;987.82;;;16.61;42.77
45071;BME280;30836;48.906;9.140;2022-09-23T04:03:45;987.82;;;16.64;42.71
45071;BME280;30836;48.906;9.140;2022-09-23T04:04:45;987.80;;;16.66;42.70
45071;BME280;30836;48.906;9.140;2022-09-23T04:05:46;987.80;;;16.67;42.69
45071;BME280;30836;48.906;9.140;2022-09-23T04:06:47;987.80;;;16.68;42.61
45071;BME280;30836;48.906;9.140;2022-09-23T04:07:47;987.78;;;16.68;42.62
45071;BME280;30836;48.906;9.140;2022-09-23T04:08:48;987.74;;;16.62;42.94
45071;BME280;30836;48.906;9.140;2022-09-23T04:09:48;987.76;;;16.50;43.30
45071;BME280;30836;48.906;9.140;2022-09-23T04:10:49;987.72;;;16.35;43.57
45071;BME280;30836;48.906;9.140;2022-09-23T04:11:49;987.72;;;16.20;43.95
45071;BME280;30836;48.906;9.140;2022-09-23T04:12:51;987.70;;;16.09;44.13
45071;BME280;30836;48.906;9.140;2022-09-23T04:13:52;987.72;;;16.01;44.30
45071;BME280;30836;48.906;9.140;2022-09-23T04:14:54;987.68;;;15.94;44.41
45071;BME280;30836;48.906;9.140;2022-09-23T04:15:54;987.70;;;15.88;44.55
45071;BME280;30836;48.906;9.140;2022-09-23T04:16:55;987.66;;;15.82;44.61
45071;BME280;30836;48.906;9.140;2022-09-23T04:17:55;987.66;;;15.77;44.73
45071;BME280;30836;48.906;9.140;2022-09-23T04:18:56;987.64;;;15.74;44.77
45071;BME280;30836;48.906;9.140;2022-09-23T04:19:56;987.66;;;15.71;44.81
45071;BME280;30836;48.906;9.140;2022-09-23T04:20:57;987.66;;;15.69;45.00
45071;BME280;30836;48.906;9.140;2022-09-23T04:21:58;987.64;;;15.66;45.01
45071;BME280;30836;48.906;9.140;2022-09-23T04:22:59;987.64;;;15.64;45.07
45071;BME280;30836;48.906;9.140;2022-09-23T04:23:59;987.64;;;15.64;44.99
45071;BME280;30836;48.906;9.140;2022-09-23T04:25:00;987.62;;;15.64;44.91
45071;BME280;30836;48.906;9.140;2022-09-23T04:26:00;987.66;;;15.65;44.88
45071;BME280;30836;48.906;9.140;2022-09-23T04:27:01;987.66;;;15.64;44.87
45071;BME280;30836;48.906;9.140;2022-09-23T04:28:01;987.62;;;15.63;44.96
45071;BME280;30836;48.906;9.140;2022-09-23T04:29:02;987.64;;;15.63;44.96
45071;BME280;30836;48.906;9.140;2022-09-23T04:30:03;987.62;;;15.64;44.84
45071;BME280;30836;48.906;9.140;2022-09-23T04:31:05;987.64;;;15.65;44.73
45071;BME280;30836;48.906;9.140;2022-09-23T04:32:06;987.60;;;15.66;44.56
45071;BME280;30836;48.906;9.140;2022-09-23T04:33:07;987.60;;;15.66;44.58
45071;BME280;30836;48.906;9.140;2022-09-23T04:34:08;987.60;;;15.66;44.67
45071;BME280;30836;48.906;9.140;2022-09-23T04:35:09;987.58;;;15.66;44.85
45071;BME280;30836;48.906;9.140;2022-09-23T04:36:09;987.58;;;15.66;44.89
45071;BME280;30836;48.906;9.140;2022-09-23T04:37:09;987.60;;;15.67;44.83
45071;BME280;30836;48.906;9.140;2022-09-23T04:38:10;987.60;;;15.67;44.88
45071;BME280;30836;48.906;9.140;2022-09-23T04:39:11;987.58;;;15.66;44.94
45071;BME280;30836;48.906;9.140;2022-09-23T04:40:12;987.60;;;15.65;44.97
45071;BME280;30836;48.906;9.140;2022-09-23T04:41:14;987.60;;;15.65;44.93
45071;BME280;30836;48.906;9.140;2022-09-23T04:42:15;987.62;;;15.67;44.80
45071;BME280;30836;48.906;9.140;2022-09-23T04:43:15;987.64;;;15.76;44.44
45071;BME280;30836;48.906;9.140;2022-09-23T04:44:16;987.66;;;15.91;44.02
45071;BME280;30836;48.906;9.140;2022-09-23T04:45:16;987.66;;;16.06;43.55
45071;BME280;30836;48.906;9.140;2022-09-23T04:46:17;987.68;;;16.20;43.24
45071;BME280;30836;48.906;9.140;2022-09-23T04:47:17;987.66;;;16.31;43.04
45071;BME280;30836;48.906;9.140;2022-09-23T04:48:18;987.66;;;16.39;42.91
45071;BME280;30836;48.906;9.140;2022-09-23T04:49:18;987.64;;;16.46;42.69
45071;BME280;30836;48.906;9.140;2022-09-23T04:50:19;987.64;;;16.52;42.55
45071;BME280;30836;48.906;9.140;2022-09-23T04:51:20;987.64;;;16.58;42.52
45071;BME280;30836;48.906;9.140;2022-09-23T04:52:21;987.64;;;16.63;42.47
45071;BME280;30836;48.906;9.140;2022-09-23T04:53:22;987.64;;;16.66;42.35
45071;BME280;30836;48.906;9.140;2022-09-23T04:54:22;987.64;;;16.68;42.32
45071;BME280;30836;48.906;9.140;2022-09-23T04:55:23;987.64;;;16.70;42.34
45071;BME280;30836;48.906;9.140;2022-09-23T04:56:25;987.64;;;16.71;42.24
45071;BME280;30836;48.906;9.140;2022-09-23T04:57:27;987.64;;;16.74;42.18
45071;BME280;30836;48.906;9.140;2022-09-23T04:58:27;987.70;;;16.76;42.11
45071;BME280;30836;48.906;9.140;2022-09-23T04:59:28;987.70;;;16.79;42.05
45071;BME280;30836;48.906;9.140;2022-09-23T05:00:28;987.68;;;16.81;42.00
45071;BME280;30836;48.906;9.140;2022-09-23T05:01:29;987.70;;;16.84;41.96
45071;BME280;30836;48.906;9.140;2022-09-23T05:02:31;987.72;;;16.86;41.96
45071;BME280;30836;48.906;9.140;2022-09-23T05:03:31;987.72;;;16.85;41.96
45071;BME280;30836;48.906;9.140;2022-09-23T05:04:32;987.74;;;16.84;41.96
45071;BME280;30836;48.906;9.140;2022-09-23T05:05:32;987.74;;;16.83;42.01
45071;BME280;30836;48.906;9.140;2022-09-23T05:06:33;987.76;;;16.83;41.97
45071;BME280;30836;48.906;9.140;2022-09-23T05:07:34;987.76;;;16.82;41.94
45071;BME280;30836;48.906;9.140;2022-09-23T05:08:34;987.76;;;16.82;41.84
45071;BME280;30836;48.906;9.140;2022-09-23T05:09:35;987.78;;;16.81;41.88
45071;BME280;30836;48.906;9.140;2022-09-23T05:10:35;987.78;;;16.79;41.98
45071;BME280;30836;48.906;9.140;2022-09-23T05:11:36;987.80;;;16.79;41.97
45071;BME280;30836;48.906;9.140;2022-09-23T05:12:36;987.80;;;16.79;41.92
45071;BME280;30836;48.906;9.140;2022-09-23T05:13:36;987.84;;;16.80;41.84
45071;BME280;30836;48.906;9.140;2022-09-23T05:14:37;987.82;;;16.82;41.83
45071;BME280;30836;48.906;9.140;2022-09-23T05:15:37;987.84;;;16.83;41.77
45071;BME280;30836;48.906;9.140;2022-09-23T05:16:38;987.86;;;16.85;41.77
45071;BME280;30836;48.906;9.140;2022-09-23T05:17:38;987.86;;;16.86;41.74
45071;BME280;30836;48.906;9.140;2022-09-23T05:18:39;987.86;;;16.88;41.68
45071;BME280;30836;48.906;9.140;2022-09-23T05:19:41;987.86;;;16.89;41.73
45071;BME280;30836;48.906;9.140;2022-09-23T05:20:41;987.84;;;16.90;41.70
45071;BME280;30836;48.906;9.140;2022-09-23T05:21:42;987.88;;;16.91;41.67
45071;BME280;30836;48.906;9.140;2022-09-23T05:22:42;987.90;;;16.92;41.65
45071;BME280;30836;48.906;9.140;2022-09-23T05:23:46;987.90;;;16.94;41.60
45071;BME280;30836;48.906;9.140;2022-09-23T05:24:51;987.88;;;16.95;41.56
45071;BME280;30836;48.906;9.140;2022-09-23T05:25:56;987.90;;;16.96;41.53
45071;BME280;30836;48.906;9.140;2022-09-23T05:26:58;987.90;;;16.97;41.51
45071;BME280;30836;48.906;9.140;2022-09-23T05:27:58;987.88;;;16.96;41.52
45071;BME280;30836;48.906;9.140;2022-09-23T05:28:59;987.90;;;16.93;41.62
45071;BME280;30836;48.906;9.140;2022-09-23T05:29:59;987.90;;;16.92;41.64
45071;BME280;30836;48.906;9.140;2022-09-23T05:32:10;987.88;;;16.92;41.71
45071;BME280;30836;48.906;9.140;2022-09-23T05:33:11;987.84;;;16.95;41.70
45071;BME280;30836;48.906;9.140;2022-09-23T05:34:11;987.84;;;16.97;41.63
45071;BME280;30836;48.906;9.140;2022-09-23T05:35:12;987.86;;;16.98;41.67
45071;BME280;30836;48.906;9.140;2022-09-23T05:36:12;987.86;;;16.97;41.66
45071;BME280;30836;48.906;9.140;2022-09-23T05:37:12;987.84;;;16.96;41.70
45071;BME280;30836;48.906;9.140;2022-09-23T05:38:13;987.86;;;16.97;41.66
45071;BME280;30836;48.906;9.140;2022-09-23T05:39:14;987.86;;;16.98;41.65
45071;BME280;30836;48.906;9.140;2022-09-23T05:40:14;987.86;;;17.00;41.63
45071;BME280;30836;48.906;9.140;2022-09-23T05:41:16;987.84;;;17.02;41.61
45071;BME280;30836;48.906;9.140;2022-09-23T05:42:18;987.86;;;17.04;41.62
45071;BME280;30836;48.906;9.140;2022-09-23T05:43:18;987.86;;;17.07;41.63
45071;BME280;30836;48.906;9.140;2022-09-23T05:44:18;987.86;;;17.08;41.64
45071;BME280;30836;48.906;9.140;2022-09-23T05:45:19;987.86;;;17.03;41.86
45071;BME280;30836;48.906;9.140;2022-09-23T05:46:21;987.86;;;16.91;42.13
45071;BME280;30836;48.906;9.140;2022-09-23T05:47:25;987.84;;;16.77;42.52
45071;BME280;30836;48.906;9.140;2022-09-23T05:48:26;987.80;;;16.65;42.81
45071;BME280;30836;48.906;9.140;2022-09-23T05:49:26;987.80;;;16.55;42.98
45071;BME280;30836;48.906;9.140;2022-09-23T05:50:26;987.82;;;16.46;43.21
45071;BME280;30836;48.906;9.140;2022-09-23T05:51:27;987.84;;;16.40;43.38
45071;BME280;30836;48.906;9.140;2022-09-23T05:52:28;987.82;;;16.36;43.42
45071;BME280;30836;48.906;9.140;2022-09-23T05:53:28;987.80;;;16.35;43.47
45071;BME280;30836;48.906;9.140;2022-09-23T05:54:29;987.80;;;16.33;43.51
45071;BME280;30836;48.906;9.140;2022-09-23T05:55:30;987.80;;;16.31;43.61
45071;BME280;30836;48.906;9.140;2022-09-23T05:56:31;987.82;;;16.29;43.67
45071;BME280;30836;48.906;9.140;2022-09-23T05:57:33;987.80;;;16.30;43.69
45071;BME280;30836;48.906;9.140;2022-09-23T05:58:33;987.80;;;16.28;43.80
45071;BME280;30836;48.906;9.140;2022-09-23T05:59:34;987.80;;;16.24;44.07
45071;BME280;30836;48.906;9.140;2022-09-23T06:00:34;987.80;;;16.20;44.06
45071;BME280;30836;48.906;9.140;2022-09-23T06:01:35;987.80;;;16.19;44.09
45071;BME280;30836;48.906;9.140;2022-09-23T06:02:35;987.80;;;16.19;44.15
45071;BME280;30836;48.906;9.140;2022-09-23T06:03:35;987.80;;;16.20;44.24
45071;BME280;30836;48.906;9.140;2022-09-23T06:04:36;987.80;;;16.20;44.26
45071;BME280;30836;48.906;9.140;2022-09-23T06:05:36;987.80;;;16.19;44.32
45071;BME280;30836;48.906;9.140;2022-09-23T06:06:38;987.80;;;16.19;44.37
45071;BME280;30836;48.906;9.140;2022-09-23T06:07:40;987.78;;;16.20;44.31
45071;BME280;30836;48.906;9.140;2022-09-23T06:08:41;987.82;;;16.24;44.21
45071;BME280;30836;48.906;9.140;2022-09-23T06:09:41;987.80;;;16.27;44.23
45071;BME280;30836;48.906;9.140;2022-09-23T06:10:43;987.82;;;16.29;44.20
45071;BME280;30836;48.906;9.140;2022-09-23T06:10:53;987.82;;;16.33;44.16
45071;BME280;30836;48.906;9.140;2022-09-23T06:11:54;987.84;;;16.35;44.05
45071;BME280;30836;48.906;9.140;2022-09-23T06:12:54;987.80;;;16.38;44.09
45071;BME280;30836;48.906;9.140;2022-09-23T06:13:55;987.82;;;16.39;44.08
45071;BME280;30836;48.906;9.140;2022-09-23T06:14:57;987.78;;;16.44;43.86
45071;BME280;30836;48.906;9.140;2022-09-23T06:15:57;987.78;;;16.54;43.54
45071;BME280;30836;48.906;9.140;2022-09-23T06:16:58;987.80;;;16.66;43.40
45071;BME280;30836;48.906;9.140;2022-09-23T06:17:58;987.80;;;16.74;43.04
45071;BME280;30836;48.906;9.140;2022-09-23T06:19:00;987.76;;;16.84;42.94
45071;BME280;30836;48.906;9.140;2022-09-23T06:20:01;987.76;;;16.94;42.84
45071;BME280;30836;48.906;9.140;2022-09-23T06:21:01;987.74;;;17.04;42.60
45071;BME280;30836;48.906;9.140;2022-09-23T06:22:02;987.72;;;17.13;42.59
45071;BME280;30836;48.906;9.140;2022-09-23T06:24:05;987.70;;;17.24;42.22
45071;BME280;30836;48.906;9.140;2022-09-23T06:25:06;987.68;;;17.27;42.21
45071;BME280;30836;48.906;9.140;2022-09-23T06:26:07;987.72;;;17.32;42.13
45071;BME280;30836;48.906;9.140;2022-09-23T06:27:09;987.70;;;17.40;41.99
45071;BME280;30836;48.906;9.140;2022-09-23T06:28:09;987.72;;;17.48;41.75
45071;BME280;30836;48.906;9.140;2022-09-23T06:29:10;987.74;;;17.55;41.67
45071;BME280;30836;48.906;9.140;2022-09-23T06:30:11;987.72;;;17.62;41.53
45071;BME280;30836;48.906;9.140;2022-09-23T06:31:12;987.72;;;17.68;41.39
45071;BME280;30836;48.906;9.140;2022-09-23T06:32:14;987.72;;;17.73;41.34
45071;BME280;30836;48.906;9.140;2022-09-23T06:33:14;987.72;;;17.76;41.29
45071;BME280;30836;48.906;9.140;2022-09-23T06:34:15;987.70;;;17.81;41.29
45071;BME280;30836;48.906;9.140;2022-09-23T06:35:15;987.70;;;17.87;41.16
45071;BME280;30836;48.906;9.140;2022-09-23T06:36:16;987.70;;;17.92;41.08
45071;BME280;30836;48.906;9.140;2022-09-23T06:37:16;987.70;;;17.95;41.15
45071;BME280;30836;48.906;9.140;2022-09-23T06:38:16;987.68;;;17.98;41.11
45071;BME280;30836;48.906;9.140;2022-09-23T06:39:17;987.70;;;18.03;41.01
45071;BME280;30836;48.906;9.140;2022-09-23T06:40:18;987.70;;;18.06;40.94
45071;BME280;30836;48.906;9.140;2022-09-23T06:41:18;987.68;;;18.08;40.94